Time;durP1;ratioP1;P1;durP2;ratioP2;P2;SDS_P1;SDS_P2;PMS_P1;PMS_P2;Temp;Humidity;BMP_temperature;BMP_pressure;BME280_temperature;BME280_humidity;BME280_pressure;Samples;Min_cycle;Max_cycle;Signal;HPM_P1;HPM_P2
2022/05/22 00:00:18;;;;;;;3.70;0.57;;;;;;;17.34;44.28;98450.75;1680203;84;21135;-69
2022/05/22 00:02:46;;;;;;;8.68;1.35;;;;;;;17.34;44.25;98456.06;1678327;84;21537;-68
2022/05/22 00:05:16;;;;;;;3.40;0.50;;;;;;;17.32;44.34;98450.88;1689363;83;21618;-68
2022/05/22 00:07:44;;;;;;;5.95;0.90;;;;;;;17.34;44.32;98451.25;1699879;83;22081;-69
2022/05/22 00:10:12;;;;;;;2.40;0.72;;;;;;;17.30;44.36;98444.88;1663141;84;21524;-68
2022/05/22 00:12:40;;;;;;;5.45;0.68;;;;;;;17.31;44.38;98449.72;1699790;83;21435;-69
2022/05/22 00:15:08;;;;;;;5.15;0.70;;;;;;;17.29;44.30;98444.54;1694015;83;21549;-69
2022/05/22 00:17:35;;;;;;;1.47;0.60;;;;;;;17.21;44.49;98447.52;1699976;83;21585;-70
2022/05/22 00:20:04;;;;;;;4.50;0.85;;;;;;;17.46;44.14;98437.70;1667015;84;21534;-70
2022/05/22 00:22:32;;;;;;;4.42;0.65;;;;;;;17.34;44.27;98438.80;1700193;83;21506;-70
2022/05/22 00:24:59;;;;;;;3.58;0.70;;;;;;;17.41;44.23;98439.93;1690968;83;21485;-70
2022/05/22 00:27:26;;;;;;;2.58;0.88;;;;;;;17.35;44.38;98433.84;1676084;84;20985;-69
2022/05/22 00:29:53;;;;;;;;;;;;;;;17.40;44.33;98436.08;1708469;82;21583;-70
2022/05/22 00:32:20;;;;;;;7.55;0.98;;;;;;;17.38;44.63;98438.03;1707408;82;21942;-69
2022/05/22 00:34:47;;;;;;;0.90;0.50;;;;;;;17.25;44.63;98440.95;1691870;83;21545;-70
2022/05/22 00:37:16;;;;;;;3.50;1.25;;;;;;;17.23;44.83;98437.09;1656104;85;21510;-71
2022/05/22 00:39:45;;;;;;;5.83;0.90;;;;;;;17.25;44.91;98428.99;1699626;83;21010;-68
2022/05/22 00:42:16;;;;;;;10.18;1.37;;;;;;;17.20;44.96;98428.59;1690913;84;21600;-69
2022/05/22 00:44:43;;;;;;;3.35;0.40;;;;;;;17.17;45.04;98424.88;1662791;85;21882;-68
2022/05/22 00:47:12;;;;;;;7.55;0.82;;;;;;;17.11;45.18;98425.77;1698191;83;21637;-70
2022/05/22 00:49:42;;;;;;;8.58;0.70;;;;;;;17.10;45.30;98428.08;1661749;84;21442;-70
2022/05/22 00:52:19;;;;;;;4.75;0.80;;;;;;;17.08;45.32;98423.40;1706302;82;21492;-70
2022/05/22 00:55:00;;;;;;;5.25;0.75;;;;;;;17.09;45.31;98418.92;1696526;83;21537;-70
2022/05/22 00:57:34;;;;;;;3.17;0.60;;;;;;;16.98;45.37;98415.05;1684363;83;21787;-69
2022/05/22 01:00:09;;;;;;;0.85;0.55;;;;;;;16.93;45.35;98414.98;1699040;83;21565;-69
2022/05/22 01:05:22;;;;;;;9.40;0.85;;;;;;;17.00;45.09;98404.64;1693249;84;21556;-69
2022/05/22 01:07:49;;;;;;;5.33;0.50;;;;;;;16.95;45.11;98413.48;1672021;84;20950;-68
2022/05/22 01:10:16;;;;;;;6.28;0.70;;;;;;;16.90;45.36;98409.09;1704143;82;21812;-69
2022/05/22 01:12:43;;;;;;;4.13;0.60;;;;;;;16.89;45.29;98406.08;1714272;82;21119;-68
2022/05/22 01:15:12;;;;;;;6.42;1.07;;;;;;;16.91;45.28;98402.33;1692936;83;21518;-70
2022/05/22 01:17:43;;;;;;;3.52;0.88;;;;;;;16.87;45.19;98405.38;1704852;82;21415;-69
2022/05/22 01:20:11;;;;;;;6.92;1.00;;;;;;;16.86;45.30;98407.70;1693139;84;21535;-69
2022/05/22 01:22:39;;;;;;;2.90;1.02;;;;;;;16.81;45.41;98396.60;1703164;82;21919;-69
2022/05/22 01:25:07;;;;;;;10.88;0.85;;;;;;;16.85;45.36;98387.42;1720877;82;21500;-69
2022/05/22 01:27:37;;;;;;;2.17;0.60;;;;;;;16.83;45.35;98384.06;1709467;82;21502;-70
2022/05/22 01:30:22;;;;;;;1.25;0.70;;;;;;;16.82;45.38;98385.89;1706967;82;21537;-70
2022/05/22 01:32:53;;;;;;;6.72;0.90;;;;;;;16.73;45.56;98390.15;1711026;81;21568;-70
2022/05/22 01:35:25;;;;;;;2.72;0.68;;;;;;;16.73;45.63;98389.32;1702094;82;21826;-70
2022/05/22 01:37:52;;;;;;;2.42;0.70;;;;;;;16.67;45.74;98382.73;1710573;82;21589;-71
2022/05/22 01:40:20;;;;;;;3.15;0.80;;;;;;;16.65;45.74;98379.38;1706852;82;21425;-70
2022/05/22 01:42:49;;;;;;;7.28;1.00;;;;;;;16.70;45.75;98373.16;1720126;81;21445;-70
2022/05/22 01:45:21;;;;;;;2.77;0.80;;;;;;;16.58;46.13;98384.87;1718423;81;21525;-71
2022/05/22 01:47:48;;;;;;;2.17;0.70;;;;;;;16.61;46.04;98375.30;1695570;83;21808;-71
2022/05/22 01:50:15;;;;;;;4.92;0.90;;;;;;;16.50;46.24;98368.30;1687749;83;21511;-71
2022/05/22 01:52:42;;;;;;;3.22;0.72;;;;;;;16.42;46.61;98371.25;1698125;83;21616;-72
2022/05/22 01:55:12;;;;;;;2.10;1.10;;;;;;;16.42;46.73;98368.60;1738348;81;21003;-70
2022/05/22 01:57:41;;;;;;;2.50;0.62;;;;;;;16.47;46.53;98381.81;1744690;81;21482;-71
2022/05/22 02:00:13;;;;;;;6.17;0.60;;;;;;;16.18;47.24;98380.38;1728387;81;21989;-71
2022/05/22 02:02:44;;;;;;;1.80;0.80;;;;;;;16.11;47.52;98368.13;1737481;81;21604;-70
2022/05/22 02:05:14;;;;;;;7.67;0.80;;;;;;;16.08;47.70;98361.74;1742798;81;21061;-70
2022/05/22 02:10:27;;;;;;;2.12;0.70;;;;;;;16.08;47.75;98362.23;1740272;81;21534;-71
2022/05/22 02:12:55;;;;;;;2.12;0.90;;;;;;;15.98;48.12;98360.87;1741704;81;21799;-71
2022/05/22 02:15:22;;;;;;;1.85;0.70;;;;;;;16.07;48.24;98362.73;1738870;81;21048;-71
2022/05/22 02:17:49;;;;;;;3.95;0.85;;;;;;;16.20;48.35;98359.01;1739132;81;21451;-71
2022/05/22 02:20:16;;;;;;;2.10;0.68;;;;;;;16.29;48.14;98352.91;1721577;81;21465;-71
2022/05/22 02:22:46;;;;;;;2.52;0.60;;;;;;;16.29;48.05;98345.81;1730357;81;21477;-71
2022/05/22 02:25:18;;;;;;;10.03;0.75;;;;;;;16.27;48.09;98338.45;1726795;81;21861;-71
2022/05/22 02:27:44;;;;;;;3.98;0.57;;;;;;;16.29;48.07;98340.98;1745567;81;21045;-72
2022/05/22 02:30:14;;;;;;;2.90;0.50;;;;;;;16.25;48.29;98336.42;1729702;81;21436;-71
2022/05/22 02:32:41;;;;;;;2.50;0.70;;;;;;;16.34;48.18;98330.31;1746234;81;21466;-71
2022/05/22 02:35:11;;;;;;;1.75;0.70;;;;;;;16.40;48.23;98332.92;1746616;81;21510;-70
2022/05/22 02:37:51;;;;;;;4.08;0.85;;;;;;;16.43;48.12;98320.73;1741550;81;22242;-72
2022/05/22 02:40:23;;;;;;;1.55;0.80;;;;;;;16.55;47.95;98321.45;1732307;81;21506;-70
2022/05/22 02:42:53;;;;;;;3.87;0.65;;;;;;;16.61;47.96;98318.73;1726481;81;21684;-70
2022/05/22 02:45:27;;;;;;;11.55;1.85;;;;;;;16.64;47.87;98314.50;1737410;81;21569;-70
2022/05/22 02:47:55;;;;;;;5.58;1.15;;;;;;;16.70;48.05;98324.56;1736069;81;21471;-71
2022/05/22 02:50:25;;;;;;;1.42;0.70;;;;;;;16.85;47.85;98313.09;1744733;81;21882;-69
2022/05/22 02:52:54;;;;;;;3.77;0.78;;;;;;;16.80;48.18;98317.47;1726504;81;21477;-70
2022/05/22 02:55:23;;;;;;;3.35;1.10;;;;;;;16.86;48.34;98310.31;1668118;83;21545;-70
2022/05/22 02:57:50;;;;;;;5.10;0.93;;;;;;;17.07;47.86;98316.81;1667332;85;21546;-69
2022/05/22 03:00:24;;;;;;;3.80;0.90;;;;;;;16.96;48.02;98306.83;1678427;84;21433;-71
2022/05/22 03:02:53;;;;;;;2.75;1.00;;;;;;;16.88;48.28;98299.06;1667394;85;22274;-70
2022/05/22 03:05:20;;;;;;;5.60;1.07;;;;;;;16.91;48.29;98303.23;1677732;83;21480;-70
2022/05/22 03:07:48;;;;;;;1.55;0.90;;;;;;;16.80;48.63;98300.22;1661946;85;21537;-70
2022/05/22 03:10:24;;;;;;;4.50;1.15;;;;;;;16.78;48.93;98298.16;1668455;85;21564;-71
2022/05/22 03:12:51;;;;;;;3.67;1.17;;;;;;;16.79;48.97;98296.37;1662344;85;21419;-70
2022/05/22 03:15:21;;;;;;;3.45;1.27;;;;;;;16.69;49.20;98292.38;1664586;85;21966;-70
2022/05/22 03:17:48;;;;;;;3.22;1.15;;;;;;;16.76;49.07;98288.17;1665347;85;21519;-70
2022/05/22 03:20:16;;;;;;;4.20;0.90;;;;;;;16.68;49.23;98286.21;1661280;85;21450;-70
2022/05/22 03:22:45;;;;;;;5.35;1.20;;;;;;;16.70;49.27;98283.42;1669652;85;21512;-70
2022/05/22 03:25:12;;;;;;;2.47;1.43;;;;;;;16.78;49.53;98286.22;1667356;85;21990;-69
2022/05/22 03:27:38;;;;;;;6.00;1.30;;;;;;;16.94;49.44;98276.43;1662766;85;21538;-68
2022/05/22 03:30:07;;;;;;;4.83;1.02;;;;;;;16.87;49.42;98269.99;1677520;84;21814;-69
2022/05/22 03:32:35;;;;;;;4.03;1.35;;;;;;;16.86;49.41;98269.66;1659219;85;21581;-69
2022/05/22 03:35:02;;;;;;;5.22;1.47;;;;;;;16.74;49.59;98274.20;1671610;84;21565;-70
2022/05/22 03:37:29;;;;;;;1.30;0.90;;;;;;;16.72;49.57;98270.86;1661507;85;21432;-71
2022/05/22 03:39:57;;;;;;;1.27;1.10;;;;;;;16.81;49.42;98266.05;1674267;84;22012;-72
2022/05/22 03:42:24;;;;;;;2.50;1.17;;;;;;;16.60;49.92;98270.64;1676830;84;21507;-71
2022/05/22 03:44:52;;;;;;;2.47;1.20;;;;;;;16.63;49.87;98265.05;1669480;84;21005;-72
2022/05/22 03:47:19;;;;;;;4.67;1.42;;;;;;;16.68;49.98;98260.17;1679499;84;21018;-72
2022/05/22 03:49:50;;;;;;;3.40;1.12;;;;;;;16.70;50.24;98259.05;1673299;84;21518;-72
2022/05/22 03:52:17;;;;;;;2.72;0.98;;;;;;;16.70;50.30;98260.38;1684196;83;21956;-72
2022/05/22 03:54:44;;;;;;;1.67;1.20;;;;;;;16.77;49.81;98249.22;1689842;83;21053;-73
2022/05/22 03:57:13;;;;;;;2.40;1.00;;;;;;;16.77;49.81;98249.22;1700256;83;21541;-70
2022/05/22 03:59:41;;;;;;;2.45;1.10;;;;;;;16.89;49.67;98252.11;1695402;83;21639;-70
2022/05/22 04:02:09;;;;;;;8.55;1.50;;;;;;;16.80;49.93;98248.92;1724533;82;21593;-69
2022/05/22 04:04:40;;;;;;;2.87;1.17;;;;;;;16.84;49.96;98254.33;1691122;83;22251;-68
2022/05/22 04:07:11;;;;;;;4.00;1.52;;;;;;;16.88;50.09;98254.43;1722836;82;21009;-70
2022/05/22 04:09:38;;;;;;;1.90;1.30;;;;;;;16.84;49.99;98257.84;1693040;83;21446;-70
2022/05/22 04:12:09;;;;;;;8.18;1.22;;;;;;;16.77;50.35;98265.15;1711378;82;21557;-70
2022/05/22 04:14:37;;;;;;;1.80;1.17;;;;;;;17.01;50.07;98252.33;1707610;82;20952;-69
2022/05/22 04:17:06;;;;;;;5.33;1.55;;;;;;;17.09;49.78;98249.80;1720884;82;21777;-70
2022/05/22 04:19:33;;;;;;;7.95;1.22;;;;;;;16.97;49.79;98244.77;1712914;82;21608;-70
2022/05/22 04:21:59;;;;;;;5.40;1.62;;;;;;;16.91;49.69;98250.15;1693196;82;20978;-70
2022/05/22 04:27:13;;;;;;;4.45;1.30;;;;;;;16.62;50.12;98250.95;1683240;82;21623;-71
2022/05/22 04:29:41;;;;;;;2.62;1.32;;;;;;;16.63;50.55;98247.80;1692001;83;21958;-73
2022/05/22 04:32:08;;;;;;;2.30;1.05;;;;;;;16.71;50.54;98248.80;1717450;82;21572;-73
2022/05/22 04:34:37;;;;;;;5.35;1.35;;;;;;;16.73;50.29;98246.84;1687085;84;21426;-72
2022/05/22 04:37:06;;;;;;;4.83;1.77;;;;;;;16.77;50.38;98242.59;1721514;82;21598;-73
2022/05/22 04:39:35;;;;;;;1.20;1.10;;;;;;;16.89;50.24;98244.97;1691330;83;21545;-71
2022/05/22 04:42:04;;;;;;;4.03;1.42;;;;;;;17.10;49.95;98247.51;1715906;82;22102;-71
2022/05/22 04:44:32;;;;;;;3.35;1.15;;;;;;;17.37;49.28;98237.12;1691130;83;21438;-73
2022/05/22 04:47:17;;;;;;;4.45;1.15;;;;;;;17.43;49.03;98238.70;1664140;82;21536;-72
2022/05/22 04:49:50;;;;;;;1.75;0.93;;;;;;;17.43;48.56;98225.92;1695634;82;21593;-73
2022/05/22 04:52:17;;;;;;;5.87;1.40;;;;;;;17.56;48.27;98235.74;1705907;82;21556;-71
2022/05/22 04:54:46;;;;;;;4.33;1.15;;;;;;;17.41;48.64;98239.34;1732965;79;21624;-71
2022/05/22 04:57:14;;;;;;;4.05;1.40;;;;;;;17.53;48.61;98229.38;1741488;81;21557;-71
2022/05/22 04:59:42;;;;;;;4.15;1.60;;;;;;;17.47;48.39;98234.77;1738296;80;21595;-71
2022/05/22 05:02:10;;;;;;;7.97;1.03;;;;;;;17.62;48.08;98231.17;1741415;81;21464;-71
2022/05/22 05:04:44;;;;;;;3.85;1.00;;;;;;;17.70;47.81;98233.93;1733442;81;21009;-72
2022/05/22 05:07:13;;;;;;;4.75;1.00;;;;;;;17.74;47.53;98219.86;1707621;82;21964;-72
2022/05/22 05:09:53;;;;;;;2.95;1.00;;;;;;;17.82;46.91;98234.61;1739108;81;21603;-70
2022/05/22 05:12:28;;;;;;;3.75;1.10;;;;;;;17.81;46.87;98232.92;1730434;80;21584;-70
2022/05/22 05:14:55;;;;;;;5.90;0.90;;;;;;;17.90;46.55;98228.09;1745285;81;20954;-70
2022/05/22 05:17:22;;;;;;;6.22;0.95;;;;;;;18.02;46.54;98233.22;1705704;82;21597;-71
2022/05/22 05:19:49;;;;;;;3.98;1.00;;;;;;;17.98;46.71;98226.52;1735527;81;21890;-70
2022/05/22 05:22:16;;;;;;;3.98;1.02;;;;;;;17.83;46.62;98236.27;1743056;81;21584;-70
2022/05/22 05:24:43;;;;;;;3.52;1.00;;;;;;;17.76;46.73;98240.48;1734194;81;21080;-70
2022/05/22 05:27:12;;;;;;;2.85;1.00;;;;;;;17.66;46.72;98243.68;1733696;81;21612;-70
2022/05/22 05:29:39;;;;;;;3.80;1.10;;;;;;;17.69;46.65;98238.09;1731440;81;21442;-71
2022/05/22 05:32:07;;;;;;;2.62;1.32;;;;;;;17.71;46.75;98240.94;1737397;81;21916;-70
2022/05/22 05:34:34;;;;;;;10.48;1.60;;;;;;;17.77;46.54;98240.02;1739574;81;21497;-67
2022/05/22 05:37:15;;;;;;;2.52;1.07;;;;;;;17.78;46.84;98244.33;1742365;81;21509;-66
2022/05/22 05:39:44;;;;;;;5.67;1.12;;;;;;;17.83;46.72;98244.74;1733484;81;21485;-66
2022/05/22 05:42:23;;;;;;;2.77;1.00;;;;;;;17.86;46.69;98243.99;1693087;82;21450;-66
2022/05/22 05:44:51;;;;;;;3.87;0.85;;;;;;;17.87;46.55;98244.82;1722457;82;21796;-67
2022/05/22 05:47:19;;;;;;;4.62;1.20;;;;;;;17.90;46.57;98249.86;1730526;81;21560;-67
2022/05/22 05:49:54;;;;;;;4.97;1.00;;;;;;;17.89;46.62;98244.18;1731954;81;21498;-66
2022/05/22 05:52:29;;;;;;;6.40;1.32;;;;;;;17.82;46.88;98258.53;1729093;81;21612;-61
2022/05/22 05:54:57;;;;;;;3.00;1.12;;;;;;;17.68;47.96;98239.88;1742885;81;21573;-67
2022/05/22 05:57:43;;;;;;;4.62;0.93;;;;;;;17.56;48.63;98242.89;1743103;81;21879;-66
2022/05/22 06:00:13;;;;;;;6.35;0.85;;;;;;;17.60;49.46;98245.59;1737493;81;21505;-64
2022/05/22 06:02:42;;;;;;;2.62;0.80;;;;;;;17.77;49.47;98239.52;1735973;81;21525;-67
2022/05/22 06:05:11;;;;;;;3.12;0.95;;;;;;;17.90;49.27;98225.43;1727895;81;21077;-68
2022/05/22 06:07:39;;;;;;;5.30;1.02;;;;;;;18.02;48.78;98230.56;1738500;81;21538;-67
2022/05/22 06:10:10;;;;;;;9.53;1.05;;;;;;;18.15;48.51;98229.72;1732533;81;21892;-65
2022/05/22 06:12:39;;;;;;;1.12;1.02;;;;;;;18.28;48.29;98224.87;1733808;81;21560;-67
2022/05/22 06:15:10;;;;;;;4.92;0.90;;;;;;;18.16;48.29;98215.91;1744519;81;21011;-67
2022/05/22 06:17:43;;;;;;;;;;;;;;;18.23;48.13;98226.31;1731950;81;21483;-65
2022/05/22 06:20:11;;;;;;;9.18;1.20;;;;;;;18.28;48.38;98216.07;1737666;81;20433;-68
2022/05/22 06:22:44;;;;;;;6.17;1.20;;;;;;;18.21;48.70;98217.14;1744136;81;22031;-70
2022/05/22 06:25:14;;;;;;;1.90;1.15;;;;;;;18.19;48.67;98223.61;1714646;81;21049;-63
2022/05/22 06:27:49;;;;;;;2.67;1.10;;;;;;;18.25;48.68;98219.02;1732810;81;21540;-68
2022/05/22 06:30:33;;;;;;;5.70;1.30;;;;;;;18.20;48.31;98231.45;1725635;81;21557;-67
2022/05/22 06:33:17;;;;;;;0.93;0.90;;;;;;;18.11;47.77;98224.36;1726097;81;21470;-64
2022/05/22 06:36:11;;;;;;;3.27;1.17;;;;;;;18.11;47.69;98215.05;1728842;81;21742;-68
2022/05/22 06:41:39;;;;;;;2.67;0.90;;;;;;;17.87;47.29;98215.08;1735575;81;21401;-67
2022/05/22 06:44:11;;;;;;;4.53;1.25;;;;;;;17.92;47.39;98226.63;1740946;81;21538;-66
2022/05/22 06:46:52;;;;;;;2.92;1.00;;;;;;;17.75;47.43;98226.03;1717595;81;21483;-68
2022/05/22 06:49:20;;;;;;;3.70;1.00;;;;;;;17.67;47.57;98228.09;1672104;81;21911;-66
2022/05/22 06:52:06;;;;;;;4.75;0.98;;;;;;;17.62;47.85;98219.71;1736375;81;21025;-68
2022/05/22 06:54:39;;;;;;;0.82;0.68;;;;;;;17.61;47.68;98224.66;1721683;81;21495;-63
2022/05/22 06:57:19;;;;;;;1.50;0.80;;;;;;;17.50;48.09;98214.57;1717866;82;21542;-62
2022/05/22 06:59:48;;;;;;;5.42;1.02;;;;;;;17.57;48.15;98224.61;1713240;81;21482;-64
2022/05/22 07:02:36;;;;;;;3.58;1.55;;;;;;;17.51;48.77;98217.55;1728237;81;21662;-67
2022/05/22 07:05:09;;;;;;;6.05;0.75;;;;;;;17.55;49.05;98237.21;1713533;81;21053;-67
2022/05/22 07:09:03;;;;;;;0.93;0.62;;;;;;;16.74;53.17;98221.12;1784731;79;22791;-68
2022/05/22 07:11:38;;;;;;;2.90;0.95;;;;;;;17.73;49.18;98226.67;1747081;79;21550;-69
2022/05/22 07:14:23;;;;;;;1.80;0.85;;;;;;;17.74;48.88;98211.06;1758545;80;21418;-66
2022/05/22 07:16:55;;;;;;;1.20;0.90;;;;;;;17.68;48.71;98223.11;1719084;79;21553;-67
2022/05/22 07:19:24;;;;;;;2.55;0.88;;;;;;;17.74;48.61;98229.66;1690140;83;21622;-67
2022/05/22 07:21:56;;;;;;;6.45;1.07;;;;;;;17.80;48.46;98235.72;1698105;83;21565;-68
2022/05/22 07:24:25;;;;;;;1.02;0.78;;;;;;;17.95;47.92;98216.17;1689578;83;21537;-68
2022/05/22 07:27:10;;;;;;;0.88;0.85;;;;;;;17.98;47.62;98239.82;1693247;83;22240;-68
2022/05/22 07:29:43;;;;;;;2.37;0.82;;;;;;;18.02;47.70;98221.25;1694852;83;21490;-68
2022/05/22 07:32:15;;;;;;;5.60;1.20;;;;;;;18.09;47.75;98209.87;1706868;82;21532;-68
2022/05/22 07:34:56;;;;;;;2.72;0.90;;;;;;;18.38;47.41;98206.19;1679461;83;21510;-67
2022/05/22 07:37:42;;;;;;;5.03;0.93;;;;;;;18.40;46.93;98206.05;1699694;83;21446;-68
2022/05/22 07:40:27;;;;;;;5.65;1.32;;;;;;;18.60;46.32;98213.41;1690816;83;21490;-67
2022/05/22 07:43:13;;;;;;;6.92;1.15;;;;;;;18.73;45.99;98204.55;1683569;83;21527;-67
2022/05/22 07:45:57;;;;;;;9.53;0.80;;;;;;;18.73;45.95;98200.55;1591494;89;21071;-66
2022/05/22 07:48:26;;;;;;;2.75;0.98;;;;;;;18.94;46.33;98206.09;1663874;83;21034;-66
2022/05/22 07:50:58;;;;;;;3.50;0.93;;;;;;;19.03;45.68;98203.34;1691584;83;21557;-67
2022/05/22 07:53:27;;;;;;;0.70;0.70;;;;;;;19.01;45.66;98205.32;1666969;82;21976;-67
2022/05/22 07:55:58;;;;;;;2.90;0.57;;;;;;;18.91;45.06;98203.25;1677736;82;21530;-66
2022/05/22 07:58:28;;;;;;;2.08;0.72;;;;;;;18.83;45.01;98195.17;1698091;82;21550;-66
2022/05/22 08:01:13;;;;;;;1.62;0.80;;;;;;;18.89;45.10;98206.53;1710845;82;21542;-66
2022/05/22 08:03:58;;;;;;;3.55;0.90;;;;;;;18.74;45.16;98206.23;1698944;81;21546;-68
2022/05/22 08:06:27;;;;;;;1.42;0.88;;;;;;;18.65;44.90;98201.82;1700373;82;21586;-67
2022/05/22 08:08:53;;;;;;;7.20;0.88;;;;;;;18.50;45.10;98200.18;1699326;82;21529;-67
2022/05/22 08:11:22;;;;;;;0.93;0.72;;;;;;;18.37;46.02;98205.03;1755659;79;21515;-67
2022/05/22 08:13:50;;;;;;;2.52;0.70;;;;;;;18.36;47.03;98212.66;1751290;80;20982;-68
2022/05/22 08:16:19;;;;;;;0.72;0.70;;;;;;;18.22;48.00;98217.50;1747536;80;21527;-67
2022/05/22 08:18:48;;;;;;;1.45;1.10;;;;;;;18.06;48.69;98224.81;1743730;81;21925;-67
2022/05/22 08:21:15;;;;;;;3.58;0.98;;;;;;;17.93;49.75;98222.12;1747406;81;21431;-67
2022/05/22 08:23:43;;;;;;;6.08;0.78;;;;;;;17.84;50.51;98226.02;1748956;80;21420;-67
2022/05/22 08:26:12;;;;;;;1.37;0.90;;;;;;;17.84;50.53;98239.78;1736805;80;21499;-68
2022/05/22 08:28:39;;;;;;;3.77;1.20;;;;;;;17.62;51.45;98251.60;1734284;81;21565;-67
2022/05/22 08:31:06;;;;;;;3.45;1.00;;;;;;;17.55;51.62;98247.84;1750258;80;21868;-67
2022/05/22 08:33:34;;;;;;;1.70;0.90;;;;;;;17.34;51.95;98250.69;1742566;80;21499;-67
2022/05/22 08:36:05;;;;;;;1.82;0.70;;;;;;;17.20;52.60;98252.80;1744117;81;21587;-68
2022/05/22 08:38:32;;;;;;;3.58;0.98;;;;;;;17.09;53.69;98259.09;1748880;80;21498;-68
2022/05/22 08:41:16;;;;;;;1.60;0.85;;;;;;;17.17;53.97;98252.25;1745391;80;21428;-68
2022/05/22 08:44:06;;;;;;;2.40;0.95;;;;;;;17.24;53.92;98252.03;1744736;80;21428;-68
2022/05/22 08:46:57;;;;;;;6.80;1.32;;;;;;;17.30;54.55;98252.28;1737405;81;20939;-69
2022/05/22 08:49:49;;;;;;;1.75;0.93;;;;;;;17.50;54.92;98248.28;1746921;80;21034;-68
2022/05/22 08:52:38;;;;;;;5.20;0.80;;;;;;;17.63;55.15;98250.13;1740556;80;21482;-70
2022/05/22 08:58:55;;;;;;;1.52;0.80;;;;;;;17.77;56.35;98258.63;1750780;80;21594;-68
2022/05/22 09:00:58;;;;;;;1.98;0.78;;;;;;;18.01;54.10;98251.00;1759428;80;21432;-69
2022/05/22 09:03:33;;;;;;;0.85;0.80;;;;;;;17.84;53.08;98251.28;1745075;80;21539;-71
2022/05/22 09:06:04;;;;;;;0.90;0.60;;;;;;;17.71;53.59;98262.20;1705563;81;21549;-69
2022/05/22 09:08:47;;;;;;;0.72;0.50;;;;;;;17.64;53.45;98241.16;1748710;80;20935;-69
2022/05/22 09:11:51;;;;;;;0.95;0.70;;;;;;;17.68;53.24;98245.70;1741416;80;21844;-68
2022/05/22 09:14:56;;;;;;;8.08;0.60;;;;;;;17.68;52.12;98238.55;1754866;81;21431;-68
2022/05/22 09:17:36;;;;;;;1.47;0.70;;;;;;;17.93;51.57;98254.03;1700525;80;21026;-67
2022/05/22 09:20:19;;;;;;;3.27;0.33;;;;;;;17.96;50.60;98230.66;1743079;80;21507;-68
2022/05/22 09:23:25;;;;;;;0.42;0.40;;;;;;;18.05;49.44;98237.75;1750250;80;21601;-68
2022/05/22 09:26:06;;;;;;;0.75;0.30;;;;;;;17.98;48.19;98240.64;1702101;81;21997;-69
2022/05/22 09:28:42;;;;;;;7.35;1.02;;;;;;;17.93;48.14;98250.05;1745933;80;21476;-69
2022/05/22 09:31:43;;;;;;;1.87;0.55;;;;;;;18.00;49.05;98259.95;1743369;80;21496;-67
2022/05/22 09:34:48;;;;;;;4.85;0.65;;;;;;;18.10;49.05;98250.59;1743691;80;21136;-68
2022/05/22 09:37:54;;;;;;;0.88;0.50;;;;;;;18.17;49.46;98247.69;1671059;82;21605;-68
2022/05/22 09:40:47;;;;;;;1.75;0.50;;;;;;;18.25;48.75;98258.45;1672314;83;22329;-67
2022/05/22 09:43:59;;;;;;;0.85;0.40;;;;;;;18.10;49.43;98254.58;1668158;84;21686;-67
2022/05/22 09:46:59;;;;;;;1.40;0.30;;;;;;;17.94;50.38;98249.08;1657726;84;21513;-68
2022/05/22 09:49:42;;;;;;;0.82;0.50;;;;;;;17.86;50.40;98251.14;1676499;83;21409;-67
2022/05/22 09:52:56;;;;;;;1.42;0.42;;;;;;;17.94;50.31;98251.23;1680909;83;21515;-68
2022/05/22 09:55:51;;;;;;;2.00;0.42;;;;;;;17.80;51.22;98262.30;1667373;82;22129;-68
2022/05/22 09:58:38;;;;;;;2.67;0.40;;;;;;;17.56;51.22;98262.31;1671308;82;21631;-71
2022/05/22 10:01:16;;;;;;;1.22;0.55;;;;;;;17.58;51.27;98260.84;1652823;84;21502;-68
2022/05/22 10:03:58;;;;;;;1.32;0.60;;;;;;;17.57;51.29;98267.12;1665050;84;21592;-66
2022/05/22 10:06:46;;;;;;;0.98;0.50;;;;;;;17.52;51.99;98262.27;1663831;84;21541;-66
2022/05/22 10:09:31;;;;;;;3.17;0.60;;;;;;;17.40;52.06;98262.06;1654380;84;22221;-68
2022/05/22 10:12:21;;;;;;;6.12;0.68;;;;;;;17.39;51.81;98268.38;1667462;84;21577;-68
2022/05/22 10:14:54;;;;;;;1.12;0.78;;;;;;;17.51;51.23;98269.88;1664847;84;21149;-68
2022/05/22 10:17:52;;;;;;;0.62;0.55;;;;;;;17.55;51.24;98277.06;1666583;84;21658;-67
2022/05/22 10:21:00;;;;;;;0.60;0.60;;;;;;;17.61;51.51;98280.47;1659521;83;21116;-67
2022/05/22 10:23:51;;;;;;;1.62;0.55;;;;;;;17.57;51.57;98283.08;1661915;84;21946;-67
2022/05/22 10:26:41;;;;;;;3.08;0.80;;;;;;;17.45;52.01;98285.06;1666350;83;21170;-65
2022/05/22 10:29:43;;;;;;;6.35;0.90;;;;;;;17.22;52.87;98292.01;1677257;83;21544;-67
2022/05/22 10:32:24;;;;;;;3.92;0.50;;;;;;;17.36;53.12;98292.55;1674427;83;21505;-68
2022/05/22 10:35:32;;;;;;;3.58;0.62;;;;;;;17.22;53.47;98273.42;1664794;84;21654;-67
2022/05/22 10:38:13;;;;;;;1.30;0.70;;;;;;;17.20;53.83;98283.84;1675522;83;22118;-68
2022/05/22 10:43:40;;;;;;;3.80;0.70;;;;;;;17.26;56.38;98288.59;1668662;84;21549;-68
2022/05/22 10:46:06;;;;;;;1.50;1.07;;;;;;;17.44;55.27;98297.98;1677578;83;21531;-68
2022/05/22 10:48:35;;;;;;;1.27;0.80;;;;;;;17.46;55.80;98307.51;1658963;84;21583;-61
2022/05/22 10:51:08;;;;;;;2.58;1.35;;;;;;;17.62;55.74;98294.95;1671008;84;21783;-68
2022/05/22 10:53:47;;;;;;;1.40;0.82;;;;;;;17.43;56.54;98300.31;1670973;84;21541;-68
2022/05/22 10:56:24;;;;;;;0.65;0.65;;;;;;;17.48;56.92;98308.70;1669352;84;21599;-64
2022/05/22 10:59:02;;;;;;;1.07;0.60;;;;;;;17.47;57.48;98309.67;1680523;84;21626;-65
2022/05/22 11:01:35;;;;;;;1.55;0.85;;;;;;;17.50;57.93;98304.91;1679132;84;21409;-66
2022/05/22 11:04:06;;;;;;;0.75;0.60;;;;;;;17.54;58.26;98316.56;1668355;84;22007;-65
2022/05/22 11:06:38;;;;;;;1.52;0.82;;;;;;;17.28;58.15;98310.53;1667382;84;21489;-65
2022/05/22 11:09:06;;;;;;;2.75;0.80;;;;;;;17.13;58.85;98298.98;1666112;84;21582;-63
2022/05/22 11:11:35;;;;;;;0.90;0.72;;;;;;;17.07;59.42;98308.84;1676363;83;21430;-64
2022/05/22 11:14:18;;;;;;;1.27;0.80;;;;;;;17.15;59.38;98327.23;1671274;84;21032;-62
2022/05/22 11:16:45;;;;;;;0.95;0.60;;;;;;;17.03;59.98;98327.38;1671978;84;21948;-64
2022/05/22 11:19:24;;;;;;;1.65;0.70;;;;;;;16.86;60.23;98318.27;1669628;84;21441;-62
2022/05/22 11:22:27;;;;;;;0.75;0.60;;;;;;;16.70;60.62;98329.86;1664208;84;21016;-60
2022/05/22 11:25:27;;;;;;;0.70;0.53;;;;;;;16.76;60.92;98318.69;1671197;84;21532;-59
2022/05/22 11:28:13;;;;;;;2.30;0.65;;;;;;;16.77;60.78;98319.55;1673506;83;21613;-62
2022/05/22 11:31:06;;;;;;;1.15;0.80;;;;;;;16.58;61.05;98314.55;1673537;84;21725;-60
2022/05/22 11:33:57;;;;;;;0.93;0.70;;;;;;;16.34;62.07;98322.86;1645101;84;21422;-62
2022/05/22 11:36:56;;;;;;;0.60;0.50;;;;;;;16.44;62.14;98318.91;1655277;84;21773;-61
2022/05/22 11:39:53;;;;;;;0.60;0.57;;;;;;;16.62;62.06;98328.39;1663011;84;21452;-63
2022/05/22 11:42:58;;;;;;;2.70;0.70;;;;;;;16.74;61.82;98327.28;1664520;84;20992;-62
2022/05/22 11:45:36;;;;;;;3.12;1.05;;;;;;;16.81;61.81;98319.63;1574719;87;21905;-61
2022/05/22 11:48:20;;;;;;;1.42;0.70;;;;;;;16.72;61.42;98334.55;1636186;86;21621;-62
2022/05/22 11:51:26;;;;;;;1.17;0.60;;;;;;;16.70;61.68;98337.33;1637139;86;21559;-61
2022/05/22 11:54:18;;;;;;;0.98;0.75;;;;;;;16.76;61.91;98340.42;1634880;86;21594;-61
2022/05/22 11:57:29;;;;;;;0.45;0.45;;;;;;;16.82;61.44;98341.20;1635633;86;21180;-62
2022/05/22 12:00:21;;;;;;;2.12;0.90;;;;;;;16.78;61.31;98339.80;1590475;88;21970;-62
2022/05/22 12:03:07;;;;;;;0.82;0.33;;;;;;;16.69;62.03;98333.52;1604397;87;21519;-63
2022/05/22 12:06:20;;;;;;;0.57;0.57;;;;;;;16.41;62.93;98347.05;1608416;87;21443;-61
2022/05/22 12:09:10;;;;;;;2.37;0.50;;;;;;;16.45;62.84;98349.28;1583018;88;21588;-61
2022/05/22 12:12:12;;;;;;;0.80;0.50;;;;;;;16.42;63.53;98346.05;1596560;88;21050;-62
2022/05/22 12:15:20;;;;;;;0.70;0.50;;;;;;;16.64;63.02;98350.32;1594314;88;22029;-62
2022/05/22 12:18:15;;;;;;;0.60;0.50;;;;;;;16.73;63.23;98352.16;1604543;88;21055;-61
2022/05/22 12:20:54;;;;;;;0.50;0.50;;;;;;;16.80;62.66;98351.11;1605182;88;21499;-62
2022/05/22 12:23:31;;;;;;;1.05;0.57;;;;;;;16.79;62.69;98349.45;1603762;88;21590;-63
2022/05/22 12:26:00;;;;;;;1.43;0.70;;;;;;;16.88;62.99;98359.28;1583039;88;21626;-62
2022/05/22 12:28:50;;;;;;;1.98;1.12;;;;;;;16.97;63.33;98354.48;1586225;88;21796;-63
2022/05/22 12:31:37;;;;;;;1.15;1.07;;;;;;;16.99;62.69;98349.01;1549164;88;21532;-61